Time;durP1;ratioP1;P1;durP2;ratioP2;P2;SDS_P1;SDS_P2;PMS_P1;PMS_P2;Temp;Humidity;BMP_temperature;BMP_pressure;BME280_temperature;BME280_humidity;BME280_pressure;Samples;Min_cycle;Max_cycle;Signal;HPM_P1;HPM_P2
2023/05/08 00:01:56;;;;;;;1.90;1.70;;;25.10;65.70;;;;;;5038040;28;20958;-75
2023/05/08 00:04:25;;;;;;;1.90;1.60;;;25.10;65.70;;;;;;5042260;28;20548;-72
2023/05/08 00:06:54;;;;;;;1.40;1.30;;;25.10;65.70;;;;;;5030296;28;21414;-75
2023/05/08 00:09:22;;;;;;;3.37;1.97;;;25.10;65.60;;;;;;5047880;28;20507;-75
2023/05/08 00:11:50;;;;;;;2.60;1.87;;;25.10;65.60;;;;;;5028302;28;20517;-75
2023/05/08 00:14:19;;;;;;;1.90;1.80;;;25.10;65.60;;;;;;5032106;28;20891;-71
2023/05/08 00:16:47;;;;;;;1.70;1.60;;;25.10;65.60;;;;;;5031617;28;20454;-75
2023/05/08 00:19:15;;;;;;;1.80;1.67;;;25.10;65.60;;;;;;5040650;28;20836;-74
2023/05/08 00:21:43;;;;;;;1.60;1.50;;;25.10;65.60;;;;;;5038016;28;20467;-75
2023/05/08 00:24:13;;;;;;;1.73;1.63;;;25.10;65.50;;;;;;5032663;28;20503;-75
2023/05/08 00:26:44;;;;;;;2.00;1.60;;;25.10;65.50;;;;;;5058049;28;20493;-75
2023/05/08 00:29:12;;;;;;;1.70;1.60;;;25.10;65.50;;;;;;5055013;28;20517;-74
2023/05/08 00:31:40;;;;;;;1.70;1.57;;;25.10;65.50;;;;;;5052184;28;20960;-74
2023/05/08 00:34:09;;;;;;;2.43;2.23;;;25.00;65.50;;;;;;5066433;28;20962;-72
2023/05/08 00:36:37;;;;;;;3.23;2.00;;;25.10;65.50;;;;;;5061354;28;20555;-74
2023/05/08 00:39:05;;;;;;;1.50;1.40;;;25.00;65.40;;;;;;5063445;28;20472;-75
2023/05/08 00:41:35;;;;;;;2.20;1.30;;;25.00;65.40;;;;;;5067849;28;20554;-74
2023/05/08 00:44:03;;;;;;;1.57;1.47;;;25.00;65.40;;;;;;5049238;28;20468;-74
2023/05/08 00:46:31;;;;;;;1.70;1.53;;;25.00;65.40;;;;;;5067021;28;20462;-73
2023/05/08 00:49:00;;;;;;;2.30;1.40;;;25.00;65.40;;;;;;5051125;28;20492;-73
2023/05/08 00:51:30;;;;;;;1.60;1.43;;;25.00;65.30;;;;;;5052499;28;20529;-74
2023/05/08 00:54:00;;;;;;;1.50;1.40;;;25.00;65.30;;;;;;5049303;28;20560;-74
2023/05/08 00:56:29;;;;;;;1.97;1.70;;;25.00;65.30;;;;;;5045408;28;20545;-72
2023/05/08 00:58:59;;;;;;;2.10;1.80;;;25.00;65.30;;;;;;5066252;28;20836;-74
2023/05/08 01:01:28;;;;;;;2.10;1.90;;;25.00;65.30;;;;;;5050230;28;21033;-73
2023/05/08 01:03:57;;;;;;;1.50;1.40;;;25.00;65.30;;;;;;5078130;28;20455;-73
2023/05/08 01:06:25;;;;;;;2.00;1.80;;;25.00;65.30;;;;;;5080038;28;20813;-73
2023/05/08 01:08:53;;;;;;;1.77;1.63;;;25.00;65.30;;;;;;5067202;28;20510;-73
2023/05/08 01:11:26;;;;;;;1.63;1.53;;;25.00;65.30;;;;;;5060093;28;20475;-74
2023/05/08 01:14:07;;;;;;;1.87;1.70;;;25.00;65.30;;;;;;5050455;28;20524;-73
2023/05/08 01:16:41;;;;;;;1.77;1.67;;;25.00;65.20;;;;;;5067636;28;20500;-74
2023/05/08 01:19:32;;;;;;;1.30;1.20;;;25.00;65.20;;;;;;5070334;28;20536;-74
2023/05/08 01:22:08;;;;;;;1.53;1.40;;;25.00;65.20;;;;;;5067288;28;20512;-74
2023/05/08 01:25:04;;;;;;;1.27;1.27;;;25.00;65.20;;;;;;5072825;28;20453;-74
2023/05/08 01:27:51;;;;;;;1.40;1.30;;;25.00;65.20;;;;;;5005061;28;20859;-75
2023/05/08 01:30:43;;;;;;;1.27;1.27;;;24.90;65.20;;;;;;5035868;28;20460;-74
2023/05/08 01:33:20;;;;;;;2.10;1.47;;;25.00;65.20;;;;;;5040858;28;20470;-74
2023/05/08 01:35:53;;;;;;;2.00;1.70;;;25.00;65.10;;;;;;5053989;28;20469;-72
2023/05/08 01:38:27;;;;;;;2.10;1.33;;;25.00;65.10;;;;;;5054862;28;20520;-75
2023/05/08 01:41:03;;;;;;;1.60;1.50;;;25.00;65.10;;;;;;5050162;28;20976;-75
2023/05/08 01:43:47;;;;;;;1.57;1.50;;;25.00;65.10;;;;;;5055114;28;20947;-75
2023/05/08 01:46:22;;;;;;;1.23;1.23;;;24.90;65.10;;;;;;5049749;28;20890;-70
2023/05/08 01:49:02;;;;;;;1.33;1.23;;;24.90;65.10;;;;;;5051965;28;20561;-75
2023/05/08 01:51:37;;;;;;;1.37;1.27;;;24.90;65.00;;;;;;5045936;28;20486;-74
2023/05/08 01:54:09;;;;;;;1.40;1.30;;;24.90;65.00;;;;;;5060324;28;20461;-72
2023/05/08 01:56:39;;;;;;;1.50;1.40;;;24.90;65.00;;;;;;5062110;28;20483;-74
2023/05/08 01:59:10;;;;;;;1.90;1.30;;;24.90;65.00;;;;;;5050533;28;20546;-74
2023/05/08 02:01:39;;;;;;;1.37;1.27;;;24.90;65.00;;;;;;5066147;28;20452;-75
2023/05/08 02:04:10;;;;;;;1.57;1.47;;;24.90;65.00;;;;;;5050294;28;20548;-71
2023/05/08 02:06:38;;;;;;;1.40;1.30;;;24.90;65.00;;;;;;5071328;28;20807;-75
2023/05/08 02:09:09;;;;;;;1.33;1.23;;;24.90;64.90;;;;;;5032657;28;21046;-75
2023/05/08 02:11:41;;;;;;;1.40;1.30;;;24.90;64.90;;;;;;5042539;28;20479;-74
2023/05/08 02:14:11;;;;;;;1.50;1.40;;;24.90;64.90;;;;;;5045879;28;20472;-74
2023/05/08 02:16:42;;;;;;;1.17;1.17;;;24.90;64.90;;;;;;5049177;28;20468;-70
2023/05/08 02:19:12;;;;;;;1.70;1.60;;;24.90;64.90;;;;;;5065947;28;20458;-74
2023/05/08 02:21:41;;;;;;;1.60;1.50;;;24.90;64.90;;;;;;5042438;28;20844;-75
2023/05/08 02:24:10;;;;;;;1.27;1.27;;;24.90;64.90;;;;;;5067727;28;20482;-74
2023/05/08 02:26:41;;;;;;;1.60;1.50;;;24.90;64.90;;;;;;5070664;28;20494;-75
2023/05/08 02:29:10;;;;;;;2.83;1.70;;;24.90;64.90;;;;;;5070287;28;20468;-74
2023/05/08 02:31:42;;;;;;;1.53;1.43;;;24.90;64.80;;;;;;5050936;28;20479;-74
2023/05/08 02:34:13;;;;;;;1.33;1.30;;;24.90;64.80;;;;;;5062960;28;20486;-75
2023/05/08 02:36:43;;;;;;;1.17;1.13;;;24.90;64.80;;;;;;5051528;28;20462;-74
2023/05/08 02:39:14;;;;;;;1.30;1.30;;;24.90;64.80;;;;;;5071207;28;20505;-74
2023/05/08 02:41:44;;;;;;;1.83;1.73;;;24.90;64.80;;;;;;5053743;28;20955;-75
2023/05/08 02:44:13;;;;;;;1.80;1.70;;;24.90;64.80;;;;;;5074091;28;20459;-73
2023/05/08 02:46:47;;;;;;;1.30;1.20;;;24.90;64.80;;;;;;5068202;28;21008;-73
2023/05/08 02:49:28;;;;;;;1.20;1.10;;;24.90;64.80;;;;;;5070291;28;20496;-73
2023/05/08 02:52:05;;;;;;;1.67;1.57;;;24.90;64.80;;;;;;5042654;28;20489;-73
2023/05/08 02:54:42;;;;;;;1.47;1.37;;;24.90;64.80;;;;;;5055779;28;20498;-75
2023/05/08 02:57:18;;;;;;;1.13;1.13;;;24.90;64.70;;;;;;5036178;28;20491;-74
2023/05/08 02:59:56;;;;;;;1.33;1.20;;;24.80;64.70;;;;;;5057154;28;20470;-75
2023/05/08 03:02:35;;;;;;;1.30;1.20;;;24.80;64.70;;;;;;5053268;28;20464;-74
2023/05/08 03:05:11;;;;;;;1.27;1.20;;;24.80;64.70;;;;;;5064535;28;20478;-73
2023/05/08 03:07:41;;;;;;;1.00;1.00;;;24.80;64.70;;;;;;5062511;28;20550;-74
2023/05/08 03:10:14;;;;;;;1.57;1.40;;;24.80;64.70;;;;;;5050536;28;20459;-74
2023/05/08 03:12:47;;;;;;;1.47;1.37;;;24.80;64.70;;;;;;5055918;28;20468;-73
2023/05/08 03:15:23;;;;;;;1.10;1.10;;;24.80;64.70;;;;;;5055620;28;20834;-72
2023/05/08 03:17:55;;;;;;;1.20;1.10;;;24.80;64.70;;;;;;5037822;28;20501;-74
2023/05/08 03:20:31;;;;;;;0.97;0.97;;;24.80;64.70;;;;;;5047067;28;20870;-73
2023/05/08 03:23:00;;;;;;;1.13;1.13;;;24.80;64.70;;;;;;5067427;28;20973;-74
2023/05/08 03:25:30;;;;;;;1.27;1.27;;;24.80;64.60;;;;;;5070213;28;20944;-74
2023/05/08 03:28:03;;;;;;;1.10;1.10;;;24.80;64.60;;;;;;5049124;28;20719;-74
2023/05/08 03:30:36;;;;;;;1.30;1.20;;;24.80;64.60;;;;;;5050098;28;20496;-75
2023/05/08 03:33:09;;;;;;;1.33;1.30;;;24.80;64.60;;;;;;5048294;28;20543;-74
2023/05/08 03:35:39;;;;;;;1.57;1.47;;;24.80;64.60;;;;;;5068960;28;20516;-75
2023/05/08 03:38:09;;;;;;;1.53;1.43;;;24.80;64.60;;;;;;5050857;28;20466;-73
2023/05/08 03:40:38;;;;;;;1.00;1.00;;;24.80;64.60;;;;;;5065357;28;20472;-73
2023/05/08 03:43:07;;;;;;;1.70;1.60;;;24.80;64.60;;;;;;5069108;28;20469;-73
2023/05/08 03:45:37;;;;;;;1.33;1.23;;;24.80;64.60;;;;;;5049808;28;20497;-71
2023/05/08 03:48:08;;;;;;;0.90;0.90;;;24.80;64.60;;;;;;5048749;28;20466;-73
2023/05/08 03:50:38;;;;;;;2.57;1.20;;;24.80;64.60;;;;;;5051948;28;20829;-72
2023/05/08 03:53:09;;;;;;;1.53;1.43;;;24.80;64.60;;;;;;5047933;28;20474;-72
2023/05/08 03:55:38;;;;;;;1.27;1.10;;;24.80;64.60;;;;;;5067395;28;20504;-73
2023/05/08 03:58:17;;;;;;;1.10;1.10;;;24.80;64.50;;;;;;5059737;28;20464;-72
2023/05/08 04:00:58;;;;;;;1.10;1.10;;;24.80;64.50;;;;;;5049359;28;20469;-73
2023/05/08 04:03:35;;;;;;;1.30;1.30;;;24.80;64.50;;;;;;5049461;28;20564;-74
2023/05/08 04:06:11;;;;;;;1.37;1.20;;;24.80;64.50;;;;;;5048094;28;20559;-73
2023/05/08 04:08:44;;;;;;;1.37;1.30;;;24.80;64.50;;;;;;5051588;28;20469;-73
2023/05/08 04:11:24;;;;;;;1.00;1.00;;;24.80;64.50;;;;;;5042111;28;20464;-73
2023/05/08 04:14:00;;;;;;;1.20;1.20;;;24.80;64.50;;;;;;5069275;28;20474;-74
2023/05/08 04:16:32;;;;;;;0.90;0.90;;;24.80;64.50;;;;;;5047807;28;20479;-71
2023/05/08 04:19:07;;;;;;;1.27;1.20;;;24.80;64.50;;;;;;5049912;28;20567;-74
2023/05/08 04:21:39;;;;;;;1.37;1.23;;;24.80;64.50;;;;;;5047272;28;20896;-75
2023/05/08 04:24:10;;;;;;;1.10;1.10;;;24.80;64.50;;;;;;5063734;28;20461;-75
2023/05/08 04:26:38;;;;;;;1.10;1.10;;;24.80;64.50;;;;;;5065032;28;21000;-75
2023/05/08 04:29:07;;;;;;;1.23;1.13;;;24.80;64.50;;;;;;5046400;28;20465;-73
2023/05/08 04:31:37;;;;;;;1.10;1.10;;;24.80;64.40;;;;;;5067156;28;20472;-75
2023/05/08 04:34:08;;;;;;;0.93;0.93;;;24.80;64.40;;;;;;5074664;28;20481;-74
2023/05/08 04:36:37;;;;;;;1.40;1.30;;;24.80;64.40;;;;;;5050421;28;20551;-72
2023/05/08 04:39:07;;;;;;;1.20;1.20;;;24.80;64.40;;;;;;5055553;28;20462;-74
2023/05/08 04:41:35;;;;;;;1.40;1.30;;;24.80;64.40;;;;;;5054469;28;20519;-74
2023/05/08 04:44:05;;;;;;;1.10;1.10;;;24.80;64.40;;;;;;5053238;28;20604;-73
2023/05/08 04:46:33;;;;;;;1.10;1.10;;;24.80;64.40;;;;;;5056534;28;20893;-74
2023/05/08 04:49:01;;;;;;;1.03;1.00;;;24.80;64.40;;;;;;5046639;28;20473;-73
2023/05/08 04:51:31;;;;;;;1.30;1.20;;;24.80;64.40;;;;;;5050182;28;20469;-74
2023/05/08 04:54:01;;;;;;;1.37;1.27;;;24.80;64.40;;;;;;5046059;28;20556;-73
2023/05/08 04:56:29;;;;;;;1.60;1.10;;;24.80;64.30;;;;;;5044228;28;21113;-76
2023/05/08 04:58:57;;;;;;;1.20;1.10;;;24.80;64.40;;;;;;5039563;28;20458;-77
2023/05/08 05:01:26;;;;;;;1.57;1.30;;;24.80;64.40;;;;;;5045118;28;20497;-78
2023/05/08 05:03:54;;;;;;;1.63;1.33;;;24.80;64.40;;;;;;5044674;28;20456;-78
2023/05/08 05:06:23;;;;;;;1.67;1.57;;;24.80;64.40;;;;;;5049479;28;20463;-77
2023/05/08 05:08:51;;;;;;;1.40;1.30;;;24.80;65.10;;;;;;5057532;28;20958;-77
2023/05/08 05:11:21;;;;;;;1.77;1.50;;;24.80;66.40;;;;;;5066633;28;20456;-75
2023/05/08 05:13:50;;;;;;;3.63;1.90;;;24.80;66.40;;;;;;5057028;28;20474;-79
2023/05/08 05:16:18;;;;;;;4.17;3.80;;;24.80;66.20;;;;;;5060334;28;20466;-75
2023/05/08 05:18:47;;;;;;;1.93;1.73;;;24.80;66.20;;;;;;5061112;28;20472;-78
2023/05/08 05:21:16;;;;;;;3.33;1.80;;;24.80;66.30;;;;;;5043855;28;20554;-77
2023/05/08 05:23:44;;;;;;;4.77;2.03;;;24.80;66.40;;;;;;5038626;28;20456;-77
2023/05/08 05:26:12;;;;;;;1.60;1.50;;;24.80;66.50;;;;;;5048660;28;20539;-78
2023/05/08 05:28:42;;;;;;;2.63;1.30;;;24.80;66.40;;;;;;5052322;28;20462;-77
2023/05/08 05:31:10;;;;;;;2.77;2.03;;;24.80;65.80;;;;;;5051739;28;20449;-77
2023/05/08 05:33:39;;;;;;;3.50;1.60;;;24.80;65.70;;;;;;5041749;28;20525;-75
2023/05/08 05:36:07;;;;;;;2.50;1.80;;;24.80;65.60;;;;;;5052486;28;20980;-75
2023/05/08 05:38:36;;;;;;;2.17;1.97;;;24.80;65.60;;;;;;5051773;28;20477;-78
2023/05/08 05:41:05;;;;;;;3.83;2.20;;;24.80;65.50;;;;;;5049300;28;20535;-71
2023/05/08 05:43:33;;;;;;;3.67;1.80;;;24.80;65.40;;;;;;5042315;28;20476;-77
2023/05/08 05:46:05;;;;;;;1.87;1.70;;;24.80;65.40;;;;;;5036668;28;20943;-78
2023/05/08 05:48:35;;;;;;;2.17;1.53;;;24.80;65.30;;;;;;5033590;28;20561;-78
2023/05/08 05:51:03;;;;;;;2.00;1.33;;;24.80;65.30;;;;;;5046977;28;20453;-78
2023/05/08 05:53:32;;;;;;;2.00;1.80;;;24.80;65.30;;;;;;5048574;28;20478;-75
2023/05/08 05:56:00;;;;;;;1.70;1.50;;;24.80;65.20;;;;;;5047226;28;20967;-78
2023/05/08 05:58:29;;;;;;;1.47;1.37;;;24.80;65.20;;;;;;5041613;28;20466;-78
2023/05/08 06:01:00;;;;;;;2.70;1.73;;;24.80;65.10;;;;;;5049339;28;20450;-78
2023/05/08 06:03:31;;;;;;;1.63;1.53;;;24.80;65.10;;;;;;5045158;28;20551;-78
2023/05/08 06:05:59;;;;;;;2.70;1.33;;;24.80;65.10;;;;;;5064484;28;20462;-76
2023/05/08 06:08:28;;;;;;;1.50;1.40;;;24.80;65.00;;;;;;5057434;28;20465;-77
2023/05/08 06:10:57;;;;;;;3.43;2.20;;;24.80;65.60;;;;;;5051880;28;20493;-77
2023/05/08 06:13:25;;;;;;;2.53;2.33;;;24.90;66.00;;;;;;5049074;28;20549;-77
2023/05/08 06:15:56;;;;;;;1.60;1.50;;;24.90;66.30;;;;;;5047145;28;20819;-76
2023/05/08 06:18:25;;;;;;;2.57;1.67;;;24.90;66.40;;;;;;5056196;28;20458;-77
2023/05/08 06:20:58;;;;;;;2.10;2.00;;;24.90;66.30;;;;;;5038436;28;20455;-74
2023/05/08 06:23:27;;;;;;;2.50;1.83;;;24.90;66.30;;;;;;5063358;28;20538;-77
2023/05/08 06:25:55;;;;;;;2.40;1.60;;;24.90;66.30;;;;;;5060692;28;20510;-73
2023/05/08 06:28:24;;;;;;;2.07;1.90;;;24.90;66.40;;;;;;5061582;28;20458;-77
2023/05/08 06:30:53;;;;;;;2.20;2.00;;;24.90;66.30;;;;;;5063992;28;20468;-78
2023/05/08 06:33:21;;;;;;;2.93;2.23;;;24.90;66.30;;;;;;5053244;28;20458;-78
2023/05/08 06:35:53;;;;;;;2.30;2.10;;;24.90;66.20;;;;;;5050532;28;20824;-77
2023/05/08 06:38:22;;;;;;;2.33;1.67;;;24.90;66.30;;;;;;5057368;28;20970;-78
2023/05/08 06:40:51;;;;;;;2.60;2.27;;;24.90;66.30;;;;;;5053764;28;20463;-76
2023/05/08 06:43:19;;;;;;;1.97;1.87;;;24.90;66.30;;;;;;5056217;28;20464;-75
2023/05/08 06:45:48;;;;;;;4.00;2.17;;;24.90;66.30;;;;;;5060315;28;20798;-76
2023/05/08 06:48:16;;;;;;;2.00;1.80;;;24.90;66.30;;;;;;5055143;28;21700;-77
2023/05/08 06:50:45;;;;;;;1.93;1.83;;;24.90;66.00;;;;;;5064696;28;20478;-77
2023/05/08 06:53:13;;;;;;;1.83;1.37;;;24.90;65.80;;;;;;5071288;28;20486;-74
2023/05/08 06:55:44;;;;;;;1.50;1.40;;;24.80;65.80;;;;;;5061072;28;20481;-78
2023/05/08 06:58:12;;;;;;;2.63;2.43;;;24.80;65.70;;;;;;5059912;28;20485;-78
2023/05/08 07:00:41;;;;;;;2.63;1.87;;;24.80;65.70;;;;;;5066676;28;20470;-74
2023/05/08 07:03:10;;;;;;;2.43;1.80;;;24.80;65.70;;;;;;5064704;28;20948;-78
2023/05/08 07:05:38;;;;;;;2.13;2.00;;;24.80;65.60;;;;;;5065829;28;20518;-77
2023/05/08 07:08:06;;;;;;;3.77;2.10;;;24.80;65.60;;;;;;5051595;28;20568;-78
2023/05/08 07:10:34;;;;;;;7.87;3.47;;;24.80;65.50;;;;;;5059515;28;20469;-77
2023/05/08 07:13:04;;;;;;;3.23;2.93;;;24.80;65.60;;;;;;5062805;28;20992;-75
2023/05/08 07:15:32;;;;;;;4.87;3.10;;;24.80;65.90;;;;;;5070706;28;20470;-76
2023/05/08 07:18:00;;;;;;;4.70;2.37;;;24.90;66.00;;;;;;5057041;28;20636;-76
2023/05/08 07:20:29;;;;;;;4.80;2.70;;;24.90;66.10;;;;;;5069239;28;20493;-78
2023/05/08 07:22:57;;;;;;;13.33;4.63;;;24.80;66.20;;;;;;5062704;28;20459;-80
2023/05/08 07:25:25;;;;;;;11.07;5.23;;;24.90;70.80;;;;;;5067383;28;20492;-79
2023/05/08 07:27:53;;;;;;;6.60;2.70;;;24.90;71.40;;;;;;5045019;28;20479;-76
2023/05/08 07:30:23;;;;;;;8.77;3.40;;;24.90;70.60;;;;;;5049013;28;20965;-80
2023/05/08 07:32:51;;;;;;;5.67;2.90;;;25.00;69.50;;;;;;5041877;28;20453;-81
2023/05/08 07:35:20;;;;;;;7.03;2.90;;;25.00;69.30;;;;;;5044444;28;20472;-78
2023/05/08 07:37:48;;;;;;;4.53;3.60;;;25.00;69.50;;;;;;5037983;28;20466;-76
2023/05/08 07:40:17;;;;;;;5.27;3.03;;;25.00;69.50;;;;;;5046065;28;20518;-81
2023/05/08 07:42:45;;;;;;;6.00;3.77;;;25.00;69.30;;;;;;5046410;28;20490;-79
2023/05/08 07:45:14;;;;;;;5.00;4.03;;;25.00;69.10;;;;;;5049948;28;20466;-81
2023/05/08 07:47:51;;;;;;;4.40;3.00;;;25.10;68.90;;;;;;5049263;28;20517;-76
2023/05/08 07:50:20;;;;;;;9.83;3.77;;;25.10;68.60;;;;;;5027536;28;21005;-82
2023/05/08 07:52:48;;;;;;;4.63;2.90;;;25.10;68.40;;;;;;5043917;28;20909;-77
2023/05/08 07:55:18;;;;;;;5.07;3.00;;;25.20;68.20;;;;;;5044468;28;20477;-79
2023/05/08 07:57:46;;;;;;;3.67;3.27;;;25.20;68.10;;;;;;5049630;28;20459;-77
2023/05/08 08:00:16;;;;;;;5.70;2.67;;;25.20;68.10;;;;;;5030543;28;20451;-80
2023/05/08 08:02:44;;;;;;;5.37;2.43;;;25.20;67.90;;;;;;5039396;28;20810;-80
2023/05/08 08:05:14;;;;;;;5.87;2.90;;;25.30;67.90;;;;;;5051428;28;20474;-81
2023/05/08 08:07:43;;;;;;;3.80;3.23;;;25.30;67.80;;;;;;5046661;28;20464;-78
2023/05/08 08:10:11;;;;;;;6.20;2.80;;;25.30;67.70;;;;;;5045587;28;20485;-78
2023/05/08 08:12:40;;;;;;;5.10;3.33;;;25.30;67.70;;;;;;5043679;28;20975;-73
2023/05/08 08:15:09;;;;;;;6.40;3.07;;;25.30;67.80;;;;;;5048193;28;20963;-78
2023/05/08 08:17:37;;;;;;;4.03;3.10;;;25.30;67.70;;;;;;5044721;28;20462;-79
2023/05/08 08:20:07;;;;;;;8.17;3.27;;;25.30;67.70;;;;;;5046670;28;20894;-79
2023/05/08 08:22:37;;;;;;;3.03;2.77;;;25.30;67.70;;;;;;5038197;28;20555;-79
2023/05/08 08:25:06;;;;;;;6.10;3.43;;;25.40;67.60;;;;;;5032391;28;20468;-79
2023/05/08 08:27:35;;;;;;;3.73;3.20;;;25.40;67.50;;;;;;5061800;28;20950;-79
2023/05/08 08:30:03;;;;;;;4.70;3.83;;;25.40;67.50;;;;;;5064694;28;20931;-80
2023/05/08 08:32:44;;;;;;;5.83;3.20;;;25.40;67.50;;;;;;5040023;28;20552;-80
2023/05/08 08:35:13;;;;;;;4.57;3.20;;;25.40;67.50;;;;;;5066496;28;20484;-79
2023/05/08 08:37:44;;;;;;;4.87;3.00;;;25.40;67.40;;;;;;5068717;28;20463;-76
2023/05/08 08:40:12;;;;;;;4.70;3.33;;;25.40;67.40;;;;;;5059954;28;20465;-81
2023/05/08 08:42:40;;;;;;;4.50;3.83;;;25.40;67.40;;;;;;5069221;28;20452;-79
2023/05/08 08:45:09;;;;;;;3.53;3.17;;;25.40;67.30;;;;;;5062544;28;20504;-74
2023/05/08 08:47:40;;;;;;;4.77;3.33;;;25.40;67.30;;;;;;5054411;28;21272;-78
2023/05/08 08:50:10;;;;;;;2.67;2.43;;;25.40;67.30;;;;;;5070010;28;20459;-71
2023/05/08 08:52:53;;;;;;;6.43;2.67;;;25.40;67.30;;;;;;5068621;28;20455;-76
2023/05/08 08:55:23;;;;;;;4.77;3.40;;;25.40;67.20;;;;;;5046433;28;20838;-78
2023/05/08 08:57:59;;;;;;;5.20;2.93;;;25.40;67.20;;;;;;5059301;28;20552;-80
2023/05/08 09:00:30;;;;;;;3.50;3.20;;;25.50;67.20;;;;;;5065526;28;20460;-79
2023/05/08 09:02:59;;;;;;;3.83;3.40;;;25.50;67.10;;;;;;5050825;28;20959;-73
2023/05/08 09:05:28;;;;;;;3.77;3.00;;;25.50;67.00;;;;;;5053268;28;20460;-80
2023/05/08 09:07:58;;;;;;;3.50;3.17;;;25.50;67.00;;;;;;5058689;28;20485;-82
2023/05/08 09:10:26;;;;;;;6.53;3.60;;;25.50;67.00;;;;;;5063749;28;20501;-81
2023/05/08 09:12:54;;;;;;;3.33;3.10;;;25.50;66.90;;;;;;5049924;28;20479;-78
2023/05/08 09:15:22;;;;;;;4.53;4.13;;;25.50;66.90;;;;;;5062123;28;20991;-78
2023/05/08 09:17:51;;;;;;;5.07;3.20;;;25.50;66.80;;;;;;5049760;28;20473;-80
2023/05/08 09:20:19;;;;;;;3.87;3.03;;;25.50;66.80;;;;;;5068391;28;20459;-77
2023/05/08 09:22:49;;;;;;;3.37;3.07;;;25.60;66.70;;;;;;5057379;28;20461;-76
2023/05/08 09:25:18;;;;;;;4.70;3.43;;;25.50;66.70;;;;;;5064268;28;20468;-81
2023/05/08 09:27:47;;;;;;;4.23;3.20;;;25.60;66.70;;;;;;5068847;28;20552;-77
2023/05/08 09:30:15;;;;;;;5.57;3.60;;;25.60;66.60;;;;;;5063375;28;24625;-81
2023/05/08 09:32:44;;;;;;;2.80;2.60;;;25.60;66.60;;;;;;5054756;28;20729;-77
2023/05/08 09:35:13;;;;;;;3.70;3.40;;;25.60;66.60;;;;;;5057786;28;20541;-83
2023/05/08 09:37:43;;;;;;;3.60;3.13;;;25.60;66.50;;;;;;5065377;28;20465;-80
2023/05/08 09:40:16;;;;;;;4.10;2.83;;;25.60;66.50;;;;;;5067329;28;20519;-76
2023/05/08 09:42:47;;;;;;;3.63;3.33;;;25.60;66.50;;;;;;5062848;28;20571;-75
2023/05/08 09:45:27;;;;;;;3.37;3.07;;;25.60;66.50;;;;;;5067000;28;20456;-78
2023/05/08 09:47:56;;;;;;;3.20;2.90;;;25.60;66.50;;;;;;5053827;28;20464;-78
2023/05/08 09:50:26;;;;;;;4.53;2.90;;;25.60;66.40;;;;;;5052479;28;20511;-78
2023/05/08 09:52:54;;;;;;;3.83;3.53;;;25.60;66.40;;;;;;5051177;28;20548;-78
2023/05/08 09:55:23;;;;;;;4.77;3.37;;;25.60;66.30;;;;;;5060686;28;20547;-79
2023/05/08 09:57:57;;;;;;;6.00;3.40;;;25.60;66.30;;;;;;5057532;28;20484;-81
2023/05/08 10:00:26;;;;;;;4.13;3.67;;;25.60;66.30;;;;;;5065269;28;20461;-82
2023/05/08 10:02:56;;;;;;;3.20;3.00;;;25.60;66.20;;;;;;5065193;28;20458;-83
2023/05/08 10:05:26;;;;;;;5.70;4.00;;;25.60;66.30;;;;;;5065693;28;20463;-81
2023/05/08 10:07:54;;;;;;;3.60;3.30;;;25.60;66.20;;;;;;5054348;28;20485;-84
2023/05/08 10:10:26;;;;;;;3.60;3.30;;;25.70;66.20;;;;;;5059771;28;20553;-79
2023/05/08 10:12:57;;;;;;;3.13;2.93;;;25.70;66.10;;;;;;5061691;28;20579;-80
2023/05/08 10:15:28;;;;;;;5.47;3.30;;;25.70;66.00;;;;;;5071609;28;21001;-80
2023/05/08 10:18:04;;;;;;;3.50;3.30;;;25.70;66.00;;;;;;5066169;28;20493;-81
2023/05/08 10:20:35;;;;;;;4.73;3.43;;;25.60;66.10;;;;;;5068349;28;20513;-76
2023/05/08 10:23:04;;;;;;;5.67;4.10;;;25.70;66.10;;;;;;5063703;28;20558;-78
2023/05/08 10:25:34;;;;;;;3.37;3.10;;;25.60;66.00;;;;;;5064059;28;21398;-80
2023/05/08 10:28:13;;;;;;;4.20;3.83;;;25.70;66.00;;;;;;5040511;28;20828;-77
2023/05/08 10:30:47;;;;;;;3.80;3.47;;;25.70;66.00;;;;;;5039693;28;20461;-82
2023/05/08 10:33:20;;;;;;;3.80;3.30;;;25.70;66.00;;;;;;5030345;28;20453;-81
2023/05/08 10:35:48;;;;;;;3.30;3.00;;;25.70;65.90;;;;;;5035833;28;20482;-82
2023/05/08 10:38:17;;;;;;;4.50;2.90;;;25.70;65.90;;;;;;5043589;28;20522;-81
2023/05/08 10:40:45;;;;;;;3.60;3.30;;;25.70;65.90;;;;;;5036911;28;20511;-82
2023/05/08 10:43:17;;;;;;;3.70;3.40;;;25.70;65.80;;;;;;5046217;28;20508;-80
2023/05/08 10:45:45;;;;;;;3.23;2.93;;;25.70;65.80;;;;;;5044323;28;20488;-83
2023/05/08 10:48:24;;;;;;;3.10;2.90;;;25.70;65.80;;;;;;5037259;28;20484;-84
2023/05/08 10:51:01;;;;;;;4.70;4.30;;;25.70;65.80;;;;;;5050533;28;20497;-83
2023/05/08 10:53:36;;;;;;;5.70;3.50;;;25.70;65.70;;;;;;5037794;28;20490;-81
2023/05/08 10:56:05;;;;;;;3.90;3.60;;;25.70;65.70;;;;;;5048509;28;20965;-82
2023/05/08 10:58:38;;;;;;;5.30;4.80;;;25.70;65.70;;;;;;5048419;28;20548;-77
2023/05/08 11:01:14;;;;;;;4.63;4.13;;;25.70;65.60;;;;;;5041569;28;20507;-78
2023/05/08 11:03:49;;;;;;;3.93;3.63;;;25.70;65.60;;;;;;5048029;28;20457;-76
2023/05/08 11:06:18;;;;;;;3.83;3.60;;;25.70;65.50;;;;;;5054286;28;20445;-76
2023/05/08 11:08:51;;;;;;;3.40;3.20;;;25.70;65.40;;;;;;5033333;28;20519;-76
2023/05/08 11:11:30;;;;;;;3.20;3.00;;;25.70;65.30;;;;;;5052589;28;20464;-76
2023/05/08 11:14:14;;;;;;;3.80;3.50;;;25.70;65.20;;;;;;5045694;28;20555;-75
2023/05/08 11:17:08;;;;;;;3.57;3.20;;;25.70;65.20;;;;;;5049866;28;20557;-77
2023/05/08 11:19:38;;;;;;;4.00;3.70;;;25.80;65.10;;;;;;5051415;28;20460;-74
2023/05/08 11:22:35;;;;;;;3.70;3.40;;;25.80;65.00;;;;;;5043647;28;20488;-76
2023/05/08 11:25:06;;;;;;;3.07;2.87;;;25.80;65.00;;;;;;5052423;28;20812;-74
2023/05/08 11:27:37;;;;;;;3.73;3.37;;;25.80;65.00;;;;;;5068064;28;20502;-75
2023/05/08 11:30:34;;;;;;;3.87;3.57;;;25.80;65.00;;;;;;5067432;28;20517;-76
2023/05/08 11:33:29;;;;;;;3.40;3.20;;;25.80;65.00;;;;;;5066516;28;21038;-75
2023/05/08 11:35:58;;;;;;;3.00;2.80;;;25.80;65.00;;;;;;5064671;28;20459;-75
2023/05/08 11:38:37;;;;;;;3.43;2.77;;;25.80;64.90;;;;;;5057859;28;20553;-75
2023/05/08 11:41:07;;;;;;;3.90;3.43;;;25.70;64.90;;;;;;5082805;28;20436;-75
2023/05/08 11:43:54;;;;;;;3.70;3.40;;;25.70;64.90;;;;;;5082503;28;20460;-76
2023/05/08 11:46:23;;;;;;;3.53;3.23;;;25.70;64.90;;;;;;5073782;28;20571;-75
2023/05/08 11:49:00;;;;;;;5.87;3.27;;;25.70;64.90;;;;;;5062778;28;20832;-75
2023/05/08 11:51:32;;;;;;;3.90;3.60;;;25.70;64.90;;;;;;5065749;28;20496;-75
2023/05/08 11:54:01;;;;;;;3.67;3.30;;;25.70;64.90;;;;;;5063279;28;20460;-77
2023/05/08 11:56:30;;;;;;;3.30;3.10;;;25.70;64.80;;;;;;5060619;28;20521;-75
2023/05/08 11:59:07;;;;;;;3.60;3.10;;;25.70;64.80;;;;;;5066139;28;20463;-75
2023/05/08 12:01:37;;;;;;;3.60;3.30;;;25.70;64.80;;;;;;5064529;28;20456;-75
2023/05/08 12:04:07;;;;;;;5.47;4.03;;;25.70;64.80;;;;;;5076805;28;20478;-74
2023/05/08 12:06:38;;;;;;;3.70;3.40;;;25.70;64.70;;;;;;5068541;28;20514;-75
2023/05/08 12:09:11;;;;;;;5.80;3.43;;;25.70;64.70;;;;;;5064075;28;20957;-74
2023/05/08 12:11:40;;;;;;;4.33;3.70;;;25.70;64.70;;;;;;5059849;28;20468;-77
2023/05/08 12:14:08;;;;;;;3.73;3.53;;;25.70;64.60;;;;;;5050054;28;20466;-73
2023/05/08 12:16:39;;;;;;;3.77;3.47;;;25.70;64.90;;;;;;5067583;28;20451;-73
2023/05/08 12:19:10;;;;;;;3.47;3.20;;;25.70;65.00;;;;;;5067316;28;20536;-73
2023/05/08 12:21:45;;;;;;;3.40;3.20;;;25.80;65.00;;;;;;5056559;28;20457;-73
2023/05/08 12:24:17;;;;;;;3.53;3.23;;;25.80;65.00;;;;;;5066373;28;20546;-72
2023/05/08 12:26:47;;;;;;;4.13;3.83;;;25.80;65.00;;;;;;5050751;28;20845;-72
2023/05/08 12:29:19;;;;;;;3.60;3.30;;;25.80;65.00;;;;;;5058389;28;20556;-72
2023/05/08 12:31:49;;;;;;;3.33;3.13;;;25.90;65.00;;;;;;5061900;28;20965;-71
2023/05/08 12:34:17;;;;;;;3.20;2.90;;;25.90;65.10;;;;;;5064199;28;20465;-71
2023/05/08 12:36:46;;;;;;;3.53;3.23;;;25.90;65.00;;;;;;5070240;28;20484;-71
2023/05/08 12:39:15;;;;;;;3.23;3.03;;;25.90;65.10;;;;;;5072342;28;21004;-70
2023/05/08 12:41:48;;;;;;;3.60;3.30;;;25.90;65.10;;;;;;5064770;28;20499;-72
2023/05/08 12:44:22;;;;;;;3.13;2.93;;;25.90;65.00;;;;;;5073004;28;20462;-72
2023/05/08 12:46:53;;;;;;;3.20;3.00;;;25.90;65.00;;;;;;5072726;28;20465;-72
2023/05/08 12:49:27;;;;;;;3.37;3.17;;;26.00;64.90;;;;;;5075429;28;20575;-74
2023/05/08 12:52:06;;;;;;;3.50;3.20;;;26.00;64.90;;;;;;5064642;28;20475;-72
2023/05/08 12:54:36;;;;;;;3.13;2.90;;;26.00;64.90;;;;;;5063571;28;20465;-71
2023/05/08 12:57:10;;;;;;;3.50;3.20;;;26.00;65.00;;;;;;5067941;28;20856;-80
2023/05/08 12:59:39;;;;;;;3.80;3.30;;;26.00;65.20;;;;;;5070646;28;20472;-77
2023/05/08 13:02:14;;;;;;;7.70;4.73;;;26.00;65.00;;;;;;5068023;28;20503;-74
2023/05/08 13:04:43;;;;;;;4.60;3.87;;;26.00;65.00;;;;;;5068555;28;20450;-74
2023/05/08 13:07:11;;;;;;;5.40;4.90;;;26.00;65.00;;;;;;5063771;28;20475;-73
2023/05/08 13:09:40;;;;;;;4.67;4.27;;;26.00;65.10;;;;;;5067678;28;20455;-73